This is the latest recevied weather packets stored in our database for station/object NC4M. If no packets are shown the sender has not sent any weather packets the latest 10 day(s).
| Time | Temp. | Humidity | Pressure | Rain* | Wind** | Luminosity | Snow |
|---|---|---|---|---|---|---|---|
| 1787841221 | 24.44° C | 71% | 1018.7 hPa | 0 mm | - | 54 W/m² | - |
| 1787840916 | 24.44° C | 71% | 1018.5 hPa | 0 mm | - | 53 W/m² | - |
| 1787840611 | 24.44° C | 70% | 1018.6 hPa | 0 mm | - | 51 W/m² | - |
| 1787840306 | 24.44° C | 74% | 1018.5 hPa | 0 mm | - | 65 W/m² | - |
| 1787840001 | 24.44° C | 73% | 1018.5 hPa | 0 mm | - | 51 W/m² | - |
| 1787839700 | 23.89° C | 75% | 1018.5 hPa | 0 mm | - | 47 W/m² | - |
| 1787839395 | 23.89° C | 72% | 1018.6 hPa | 0 mm | - | 46 W/m² | - |
| 1787839095 | 23.89° C | 75% | 1018.7 hPa | 0 mm | - | 44 W/m² | - |
| 1787838794 | 23.89° C | 76% | 1018.8 hPa | 0 mm | - | 44 W/m² | - |
| 1787838489 | 23.33° C | 79% | 1018.9 hPa | 0 mm | - | 43 W/m² | - |
| 1787838188 | 22.78° C | 78% | 1018.7 hPa | 0 mm | - | 46 W/m² | - |
| 1787837882 | 22.78° C | 80% | 1018.7 hPa | 0 mm | - | 69 W/m² | - |
| 1787837581 | 22.22° C | 79% | 1018.6 hPa | 0 mm | - | 98 W/m² | - |
| 1787837280 | 21.67° C | 83% | 1018.9 hPa | 0 mm | - | 41 W/m² | - |
| 1787836976 | 21.67° C | 86% | 1018.7 hPa | 0 mm | - | 35 W/m² | - |
| 1787836671 | 21.11° C | 89% | 1018.7 hPa | 0 mm | - | 37 W/m² | - |
| 1787836370 | 21.11° C | 90% | 1018.7 hPa | 0 mm | - | 32 W/m² | - |
| 1787836066 | 20.56° C | 90% | 1018.6 hPa | 0 mm | - | 31 W/m² | - |
| 1787835762 | 20° C | 92% | 1018.6 hPa | 0 mm | - | 30 W/m² | - |
| 1787835456 | 20° C | 94% | 1018.4 hPa | 0 mm | - | 29 W/m² | - |
| 1787835151 | 19.44° C | 96% | 1018.5 hPa | 0 mm | - | 27 W/m² | - |
| 1787834850 | 19.44° C | 96% | 1018.4 hPa | 0 mm | - | 26 W/m² | - |
| 1787834545 | 19.44° C | 96% | 1018.3 hPa | 0 mm | - | 25 W/m² | - |
| 1787834240 | 18.89° C | 96% | 1018.2 hPa | 0 mm | - | 24 W/m² | - |
| 1787833936 | 18.89° C | 96% | 1018.2 hPa | 0 mm | - | 22 W/m² | - |
* Rain latest hour (hover to see other rain measurements)
** Current wind speed in m/s (hover to see current wind gust speed)